createdAt,value
2018-05-31T00:00:10.756Z,995.93
2018-05-31T00:01:17.245Z,995.96
2018-05-31T00:02:23.750Z,995.94
2018-05-31T00:03:30.206Z,995.94
2018-05-31T00:04:36.690Z,995.91
2018-05-31T00:05:43.173Z,995.92
2018-05-31T00:06:49.654Z,995.91
2018-05-31T00:07:56.169Z,995.89
2018-05-31T00:09:02.614Z,995.90
2018-05-31T00:10:09.088Z,995.91
2018-05-31T00:11:15.571Z,995.92
2018-05-31T00:12:23.071Z,995.92
2018-05-31T00:13:28.531Z,995.92
2018-05-31T00:14:35.005Z,995.91
2018-05-31T00:15:41.475Z,995.91
2018-05-31T00:16:47.947Z,995.90
2018-05-31T00:17:54.442Z,995.91
2018-05-31T00:19:00.931Z,995.93
2018-05-31T00:20:07.343Z,995.99
2018-05-31T00:21:14.818Z,996.01
2018-05-31T00:22:20.311Z,995.99
2018-05-31T00:23:26.786Z,995.97
2018-05-31T00:24:33.215Z,996.00
2018-05-31T00:25:39.690Z,996.05
2018-05-31T00:26:46.157Z,996.04
2018-05-31T00:27:52.650Z,995.99
2018-05-31T00:28:59.092Z,996.03
2018-05-31T00:30:05.566Z,996.01
2018-05-31T00:31:12.026Z,996.02
2018-05-31T00:32:18.513Z,996.02
2018-05-31T00:33:24.961Z,996.01
2018-05-31T00:34:31.537Z,996.02
2018-05-31T00:35:37.893Z,995.99
2018-05-31T00:36:44.354Z,995.97
2018-05-31T00:37:50.842Z,995.95
2018-05-31T00:40:03.754Z,995.96
2018-05-31T00:41:10.212Z,995.93
2018-05-31T00:42:16.697Z,995.94
2018-05-31T00:43:23.129Z,995.92
2018-05-31T00:44:29.600Z,995.92
2018-05-31T00:45:36.050Z,995.93
2018-05-31T00:46:42.507Z,995.90
2018-05-31T00:47:49.002Z,995.92
2018-05-31T00:48:55.524Z,995.96
2018-05-31T00:50:01.897Z,995.96
2018-05-31T00:51:08.342Z,995.97
2018-05-31T00:52:14.822Z,995.93
2018-05-31T00:53:21.254Z,995.93
2018-05-31T00:54:27.709Z,995.91
2018-05-31T00:55:34.158Z,995.91
2018-05-31T00:56:40.609Z,995.93
2018-05-31T00:57:47.102Z,995.93
2018-05-31T00:58:53.526Z,995.92
2018-05-31T00:59:59.983Z,995.96
2018-05-31T01:01:06.441Z,995.94
2018-05-31T01:02:12.896Z,995.92
2018-05-31T01:03:19.354Z,995.91
2018-05-31T01:04:25.778Z,995.95
2018-05-31T01:05:32.265Z,995.95
2018-05-31T01:06:38.690Z,995.96
2018-05-31T01:07:45.161Z,995.95
2018-05-31T01:08:51.577Z,995.94
2018-05-31T01:09:58.027Z,995.95
2018-05-31T01:11:04.477Z,995.92
2018-05-31T01:12:10.945Z,995.90
2018-05-31T01:13:17.404Z,995.86
2018-05-31T01:14:23.826Z,995.87
2018-05-31T01:15:30.256Z,995.87
2018-05-31T01:16:36.714Z,995.82
2018-05-31T01:17:43.177Z,995.79
2018-05-31T01:18:49.607Z,995.80
2018-05-31T01:19:56.043Z,995.78
2018-05-31T01:21:02.503Z,995.77
2018-05-31T01:22:08.966Z,995.73
2018-05-31T01:23:15.903Z,995.72
2018-05-31T01:24:21.828Z,995.68
2018-05-31T01:25:28.278Z,995.71
2018-05-31T01:26:34.708Z,995.68
2018-05-31T01:27:41.183Z,995.67
2018-05-31T01:28:47.598Z,995.66
2018-05-31T01:29:54.054Z,995.64
2018-05-31T01:31:00.486Z,995.68
2018-05-31T01:32:06.977Z,995.68
2018-05-31T01:33:13.404Z,995.69
2018-05-31T01:34:19.841Z,995.67
2018-05-31T01:35:26.265Z,995.67
2018-05-31T01:36:32.716Z,995.69
2018-05-31T01:37:39.181Z,995.63
2018-05-31T01:38:45.608Z,995.65
2018-05-31T01:39:52.057Z,995.63
2018-05-31T01:40:58.494Z,995.66
2018-05-31T01:42:04.944Z,995.65
2018-05-31T01:43:11.894Z,995.63
2018-05-31T01:44:17.827Z,995.65
2018-05-31T01:45:24.285Z,995.63
2018-05-31T01:46:30.720Z,995.64
2018-05-31T01:47:37.195Z,995.62
2018-05-31T01:48:43.616Z,995.63
2018-05-31T01:49:50.074Z,995.67
2018-05-31T01:50:56.519Z,995.61
2018-05-31T01:52:02.968Z,995.58
2018-05-31T01:53:09.429Z,995.59
2018-05-31T01:54:15.857Z,995.56
2018-05-31T01:55:22.308Z,995.54
2018-05-31T01:56:28.756Z,995.50
2018-05-31T01:57:35.227Z,995.49
2018-05-31T01:58:41.655Z,995.51
2018-05-31T01:59:48.107Z,995.51
2018-05-31T02:00:54.548Z,995.51
2018-05-31T02:02:00.999Z,995.48
2018-05-31T02:03:07.544Z,995.46
2018-05-31T02:04:14.383Z,995.48
2018-05-31T02:05:20.323Z,995.44
2018-05-31T02:06:26.771Z,995.48
2018-05-31T02:07:33.273Z,995.46
2018-05-31T02:08:39.669Z,995.52
2018-05-31T02:09:46.120Z,995.51
2018-05-31T02:10:52.567Z,995.50
2018-05-31T02:11:59.015Z,995.51
2018-05-31T02:13:05.549Z,995.51
2018-05-31T02:14:11.894Z,995.49
2018-05-31T02:15:18.359Z,995.45
2018-05-31T02:16:24.794Z,995.45
2018-05-31T02:17:31.246Z,995.43
2018-05-31T02:18:37.712Z,995.46
2018-05-31T02:19:44.127Z,995.42
2018-05-31T02:20:50.578Z,995.41
2018-05-31T02:21:57.042Z,995.46
2018-05-31T02:23:03.493Z,995.45
2018-05-31T02:24:09.922Z,995.41
2018-05-31T02:25:16.371Z,995.43
2018-05-31T02:26:22.810Z,995.43
2018-05-31T02:27:29.263Z,995.41
2018-05-31T02:28:35.724Z,995.39
2018-05-31T02:29:42.152Z,995.41
2018-05-31T02:30:48.602Z,995.40
2018-05-31T02:31:55.036Z,995.40
2018-05-31T02:33:01.535Z,995.39
2018-05-31T02:34:07.931Z,995.40
2018-05-31T02:35:14.382Z,995.45
2018-05-31T02:36:20.820Z,995.43
2018-05-31T02:37:27.272Z,995.43
2018-05-31T02:38:33.737Z,995.49
2018-05-31T02:39:40.155Z,995.50
2018-05-31T02:40:46.602Z,995.62
2018-05-31T02:41:53.044Z,995.70
2018-05-31T02:42:59.527Z,995.67
2018-05-31T02:44:05.935Z,995.68
2018-05-31T02:45:12.375Z,995.60
2018-05-31T02:46:18.811Z,995.46
2018-05-31T02:47:25.259Z,995.45
2018-05-31T02:48:31.727Z,995.45
2018-05-31T02:49:38.151Z,995.50
2018-05-31T02:50:44.610Z,995.47
2018-05-31T02:51:51.033Z,995.52
2018-05-31T02:52:57.505Z,995.55
2018-05-31T02:54:03.922Z,995.60
2018-05-31T02:55:10.359Z,995.70
2018-05-31T02:56:16.801Z,995.85
2018-05-31T02:57:23.260Z,995.92
2018-05-31T02:58:29.717Z,995.93
2018-05-31T02:59:36.696Z,995.88
2018-05-31T03:00:42.614Z,995.80
2018-05-31T03:01:49.048Z,995.75
2018-05-31T03:02:55.523Z,995.73
2018-05-31T03:04:01.953Z,995.72
2018-05-31T03:05:08.409Z,995.70
2018-05-31T03:06:14.866Z,995.67
2018-05-31T03:07:21.325Z,995.73
2018-05-31T03:08:27.813Z,995.80
2018-05-31T03:09:34.246Z,995.80
2018-05-31T03:10:40.704Z,995.77
2018-05-31T03:11:47.162Z,995.77
2018-05-31T03:12:53.638Z,995.75
2018-05-31T03:14:00.082Z,995.72
2018-05-31T03:15:06.538Z,995.73
2018-05-31T03:16:12.990Z,995.80
2018-05-31T03:17:19.529Z,995.83
2018-05-31T03:18:25.933Z,995.83
2018-05-31T03:19:32.370Z,995.83
2018-05-31T03:20:38.817Z,995.79
2018-05-31T03:21:45.280Z,995.77
2018-05-31T03:22:51.756Z,995.78
2018-05-31T03:23:58.192Z,995.75
2018-05-31T03:25:04.640Z,995.79
2018-05-31T03:26:11.087Z,995.84
2018-05-31T03:27:17.541Z,995.89
2018-05-31T03:28:24.016Z,995.87
2018-05-31T03:29:30.445Z,995.85
2018-05-31T03:30:36.889Z,995.85
2018-05-31T03:31:43.345Z,995.83
2018-05-31T03:32:49.819Z,995.86
2018-05-31T03:33:56.254Z,995.90
2018-05-31T03:35:02.697Z,995.96
2018-05-31T03:36:09.145Z,996.00
2018-05-31T03:37:15.593Z,996.02
2018-05-31T03:38:22.250Z,996.00
2018-05-31T03:39:28.489Z,996.00
2018-05-31T03:40:34.935Z,995.92
2018-05-31T03:41:41.392Z,995.98
2018-05-31T03:42:47.839Z,996.02
2018-05-31T03:43:54.313Z,996.06
2018-05-31T03:45:00.739Z,996.08
2018-05-31T03:46:07.200Z,996.08
2018-05-31T03:47:13.659Z,996.10
2018-05-31T03:48:20.137Z,996.07
2018-05-31T03:49:26.574Z,996.04
2018-05-31T03:50:33.033Z,995.99
2018-05-31T03:51:39.489Z,995.95
2018-05-31T03:52:45.946Z,995.96
2018-05-31T03:53:52.425Z,995.97
2018-05-31T03:54:58.907Z,995.97
2018-05-31T03:56:05.318Z,995.97
2018-05-31T03:57:11.803Z,995.98
2018-05-31T03:58:18.268Z,996.00
2018-05-31T03:59:24.722Z,995.99
2018-05-31T04:00:31.183Z,996.01
2018-05-31T04:01:37.675Z,995.99
2018-05-31T04:02:44.138Z,996.02
2018-05-31T04:03:51.647Z,996.00
2018-05-31T04:04:57.118Z,996.01
2018-05-31T04:06:03.575Z,995.99
2018-05-31T04:07:10.069Z,995.96
2018-05-31T04:08:16.573Z,995.95
2018-05-31T04:09:23.048Z,995.95
2018-05-31T04:10:29.542Z,995.90
2018-05-31T04:11:37.028Z,995.90
2018-05-31T04:12:42.527Z,995.88
2018-05-31T04:13:49.061Z,995.90
2018-05-31T04:14:55.511Z,995.88
2018-05-31T04:16:02.009Z,995.87
2018-05-31T04:17:08.501Z,995.87
2018-05-31T04:18:15.026Z,995.85
2018-05-31T04:19:21.489Z,995.80
2018-05-31T04:20:27.998Z,995.84
2018-05-31T04:21:34.494Z,995.85
2018-05-31T04:22:40.996Z,995.87
2018-05-31T04:23:47.523Z,995.90
2018-05-31T04:24:53.995Z,995.91
2018-05-31T04:26:00.506Z,995.91
2018-05-31T04:27:07.012Z,995.92
2018-05-31T04:28:13.541Z,995.97
2018-05-31T04:29:20.030Z,995.99
2018-05-31T04:30:26.545Z,996.02
2018-05-31T04:31:33.055Z,995.99
2018-05-31T04:32:39.596Z,995.99
2018-05-31T04:33:46.113Z,996.06
2018-05-31T04:34:53.104Z,996.03
2018-05-31T04:35:59.117Z,996.02
2018-05-31T04:37:05.643Z,996.02
2018-05-31T04:38:12.197Z,996.02
2018-05-31T04:39:18.678Z,996.01
2018-05-31T04:40:25.701Z,995.96
2018-05-31T04:41:31.720Z,995.97
2018-05-31T04:42:38.248Z,995.99
2018-05-31T04:43:44.799Z,996.01
2018-05-31T04:44:51.314Z,995.96
2018-05-31T04:45:57.843Z,995.97
2018-05-31T04:47:04.370Z,995.94
2018-05-31T04:48:10.942Z,995.98
2018-05-31T04:49:17.529Z,995.94
2018-05-31T04:50:23.991Z,995.95
2018-05-31T04:51:30.520Z,995.95
2018-05-31T04:52:37.060Z,995.95
2018-05-31T04:53:43.642Z,995.89
2018-05-31T04:54:50.173Z,995.86
2018-05-31T04:55:56.712Z,995.90
2018-05-31T04:57:03.262Z,995.89
2018-05-31T04:58:09.865Z,995.88
2018-05-31T04:59:16.388Z,995.91
2018-05-31T05:00:23.519Z,995.92
2018-05-31T05:01:29.507Z,995.90
2018-05-31T05:02:36.092Z,995.89
2018-05-31T05:03:42.668Z,995.88
2018-05-31T05:04:49.223Z,995.88
2018-05-31T05:05:55.790Z,995.88
2018-05-31T05:07:02.370Z,995.89
2018-05-31T05:08:08.987Z,995.84
2018-05-31T05:09:15.573Z,995.89
2018-05-31T05:10:22.142Z,995.86
2018-05-31T05:11:28.935Z,995.89
2018-05-31T05:12:35.342Z,995.86
2018-05-31T05:13:41.950Z,995.80
2018-05-31T05:14:48.533Z,995.84
2018-05-31T05:15:55.160Z,995.83
2018-05-31T05:17:01.734Z,995.83
2018-05-31T05:18:08.367Z,995.82
2018-05-31T05:19:14.970Z,995.85
2018-05-31T05:20:22.574Z,995.79
2018-05-31T05:21:28.174Z,995.84
2018-05-31T05:22:34.795Z,995.79
2018-05-31T05:23:41.631Z,995.79
2018-05-31T05:24:48.028Z,995.83
2018-05-31T05:25:54.636Z,995.82
2018-05-31T05:27:01.258Z,995.88
2018-05-31T05:28:07.882Z,995.84
2018-05-31T05:29:14.550Z,995.82
2018-05-31T05:31:27.769Z,995.84
2018-05-31T05:32:34.443Z,995.82
2018-05-31T05:33:41.050Z,995.76
2018-05-31T05:34:47.654Z,995.77
2018-05-31T05:35:54.279Z,995.79
2018-05-31T05:37:00.920Z,995.76
2018-05-31T05:38:07.546Z,995.75
2018-05-31T05:39:14.194Z,995.75
2018-05-31T05:40:20.851Z,995.72
2018-05-31T05:41:27.617Z,995.74
2018-05-31T05:42:34.069Z,995.70
2018-05-31T05:43:40.717Z,995.69
2018-05-31T05:44:47.332Z,995.66
2018-05-31T05:45:53.951Z,995.69
2018-05-31T05:47:00.584Z,995.65
2018-05-31T05:48:07.206Z,995.64
2018-05-31T05:49:13.860Z,995.62
2018-05-31T05:50:20.466Z,995.66
2018-05-31T05:51:27.092Z,995.59
2018-05-31T05:52:33.697Z,995.58
2018-05-31T05:53:40.360Z,995.62
2018-05-31T05:54:46.938Z,995.63
2018-05-31T05:55:53.605Z,995.61
2018-05-31T05:57:00.176Z,995.66
2018-05-31T05:58:06.800Z,995.65
2018-05-31T05:59:13.460Z,995.66
2018-05-31T06:00:20.028Z,995.65
2018-05-31T06:01:26.646Z,995.69
2018-05-31T06:02:33.268Z,995.71
2018-05-31T06:03:39.906Z,995.73
2018-05-31T06:04:46.500Z,995.75
2018-05-31T06:05:53.114Z,995.74
2018-05-31T06:06:59.749Z,995.78
2018-05-31T06:08:06.359Z,995.79
2018-05-31T06:09:13.017Z,995.77
2018-05-31T06:10:19.605Z,995.79
2018-05-31T06:11:26.211Z,995.81
2018-05-31T06:12:32.832Z,995.80
2018-05-31T06:13:39.555Z,995.79
2018-05-31T06:14:46.072Z,995.79
2018-05-31T06:15:53.195Z,995.80
2018-05-31T06:16:59.327Z,995.79
2018-05-31T06:18:06.050Z,995.79
2018-05-31T06:19:12.582Z,995.79
2018-05-31T06:20:19.180Z,995.78
2018-05-31T06:21:25.809Z,995.81
2018-05-31T06:22:32.430Z,995.83
2018-05-31T06:23:39.087Z,995.83
2018-05-31T06:24:45.688Z,995.84
2018-05-31T06:25:52.323Z,995.85
2018-05-31T06:26:58.956Z,995.89
2018-05-31T06:28:05.600Z,995.87
2018-05-31T06:29:12.744Z,995.88
2018-05-31T06:30:18.874Z,995.92
2018-05-31T06:31:25.518Z,995.91
2018-05-31T06:32:32.147Z,995.96
2018-05-31T06:33:38.867Z,996.00
2018-05-31T06:34:45.526Z,995.96
2018-05-31T06:35:52.098Z,996.01
2018-05-31T06:36:58.746Z,996.04
2018-05-31T06:38:05.409Z,996.00
2018-05-31T06:39:12.111Z,995.98
2018-05-31T06:40:18.767Z,995.97
2018-05-31T06:41:25.454Z,996.00
2018-05-31T06:42:32.161Z,996.04
2018-05-31T06:43:38.909Z,996.03
2018-05-31T06:44:45.590Z,996.04
2018-05-31T06:45:52.360Z,996.07
2018-05-31T06:46:59.081Z,996.10
2018-05-31T06:48:05.799Z,996.08
2018-05-31T06:49:12.627Z,996.15
2018-05-31T06:50:19.310Z,996.12
2018-05-31T06:51:26.054Z,996.16
2018-05-31T06:52:32.833Z,996.12
2018-05-31T06:53:39.646Z,996.17
2018-05-31T06:54:46.415Z,996.17
2018-05-31T06:55:53.203Z,996.18
2018-05-31T06:57:00.008Z,996.15
2018-05-31T06:58:06.792Z,996.17
2018-05-31T06:59:13.616Z,996.16
2018-05-31T07:00:20.406Z,996.20
2018-05-31T07:01:27.195Z,996.19
2018-05-31T07:02:34.015Z,996.27
2018-05-31T07:03:40.845Z,996.18
2018-05-31T07:04:47.635Z,996.22
2018-05-31T07:05:54.447Z,996.26
2018-05-31T07:07:01.271Z,996.27
2018-05-31T07:08:08.109Z,996.28
2018-05-31T07:09:14.942Z,996.29
2018-05-31T07:10:21.758Z,996.34
2018-05-31T07:11:29.601Z,996.30
2018-05-31T07:12:35.530Z,996.31
2018-05-31T07:13:42.298Z,996.31
2018-05-31T07:14:49.133Z,996.30
2018-05-31T07:15:56.044Z,996.29
2018-05-31T07:17:02.842Z,996.31
2018-05-31T07:18:09.716Z,996.29
2018-05-31T07:19:16.593Z,996.27
2018-05-31T07:20:23.519Z,996.26
2018-05-31T07:21:30.294Z,996.37
2018-05-31T07:22:37.155Z,996.34
2018-05-31T07:23:44.022Z,996.34
2018-05-31T07:24:50.859Z,996.36
2018-05-31T07:25:57.719Z,996.40
2018-05-31T07:27:04.570Z,996.35
2018-05-31T07:28:11.931Z,996.33
2018-05-31T07:29:18.301Z,996.32
2018-05-31T07:30:25.155Z,996.36
2018-05-31T07:31:32.002Z,996.34
2018-05-31T07:32:38.867Z,996.35
2018-05-31T07:33:45.764Z,996.29
2018-05-31T07:34:52.608Z,996.28
2018-05-31T07:35:59.494Z,996.30
2018-05-31T07:37:06.362Z,996.29
2018-05-31T07:38:13.244Z,996.35
2018-05-31T07:39:20.159Z,996.32
2018-05-31T07:40:27.033Z,996.32
2018-05-31T07:41:33.916Z,996.35
2018-05-31T07:42:40.824Z,996.32
2018-05-31T07:43:47.732Z,996.34
2018-05-31T07:44:54.636Z,996.32
2018-05-31T07:46:02.505Z,996.30
2018-05-31T07:47:08.413Z,996.33
2018-05-31T07:48:15.320Z,996.31
2018-05-31T07:49:22.227Z,996.31
2018-05-31T07:50:29.104Z,996.34
2018-05-31T07:51:36.037Z,996.28
2018-05-31T07:52:43.405Z,996.24
2018-05-31T07:53:49.841Z,996.27
2018-05-31T07:54:56.731Z,996.31
2018-05-31T07:56:03.637Z,996.31
2018-05-31T07:57:10.533Z,996.37
2018-05-31T07:58:17.556Z,996.37
2018-05-31T07:59:24.393Z,996.36
2018-05-31T08:00:31.293Z,996.39
2018-05-31T08:01:38.220Z,996.37
2018-05-31T08:02:45.163Z,996.37
2018-05-31T08:03:52.606Z,996.36
2018-05-31T08:04:59.027Z,996.40
2018-05-31T08:06:05.968Z,996.41
2018-05-31T08:07:12.929Z,996.43
2018-05-31T08:08:19.870Z,996.42
2018-05-31T08:09:26.847Z,996.38
2018-05-31T08:10:33.769Z,996.36
2018-05-31T08:11:40.737Z,996.35
2018-05-31T08:12:47.708Z,996.35
2018-05-31T08:13:54.673Z,996.36
2018-05-31T08:15:02.610Z,996.40
2018-05-31T08:16:08.566Z,996.37
2018-05-31T08:17:15.531Z,996.38
2018-05-31T08:18:22.498Z,996.31
2018-05-31T08:19:29.499Z,996.31
2018-05-31T08:20:36.435Z,996.35
2018-05-31T08:21:43.405Z,996.34
2018-05-31T08:22:50.353Z,996.32
2018-05-31T08:23:57.321Z,996.30
2018-05-31T08:25:04.253Z,996.34
2018-05-31T08:26:11.194Z,996.31
2018-05-31T08:27:18.141Z,996.35
2018-05-31T08:28:25.086Z,996.34
2018-05-31T08:29:32.059Z,996.30
2018-05-31T08:30:38.980Z,996.31
2018-05-31T08:31:45.935Z,996.28
2018-05-31T08:32:52.875Z,996.30
2018-05-31T08:33:59.840Z,996.31
2018-05-31T08:35:06.771Z,996.26
2018-05-31T08:36:13.713Z,996.24
2018-05-31T08:37:20.653Z,996.25
2018-05-31T08:38:27.591Z,996.27
2018-05-31T08:39:34.543Z,996.25
2018-05-31T08:40:41.529Z,996.28
2018-05-31T08:41:48.369Z,996.31
2018-05-31T08:42:55.283Z,996.30
2018-05-31T08:44:02.276Z,996.36
2018-05-31T08:45:09.131Z,996.30
2018-05-31T08:46:16.054Z,996.29
2018-05-31T08:47:22.971Z,996.30
2018-05-31T08:48:29.905Z,996.32
2018-05-31T08:49:36.843Z,996.37
2018-05-31T08:50:43.770Z,996.34
2018-05-31T08:51:50.685Z,996.35
2018-05-31T08:52:57.618Z,996.34
2018-05-31T08:54:04.566Z,996.31
2018-05-31T08:55:11.542Z,996.36
2018-05-31T08:56:18.376Z,996.41
2018-05-31T08:57:25.311Z,996.39
2018-05-31T08:58:32.167Z,996.38
2018-05-31T08:59:39.088Z,996.37
2018-05-31T09:00:45.945Z,996.42
2018-05-31T09:01:52.836Z,996.42
2018-05-31T09:02:59.710Z,996.45
2018-05-31T09:04:06.605Z,996.50
2018-05-31T09:05:13.447Z,996.59
2018-05-31T09:06:20.310Z,996.65
2018-05-31T09:07:27.651Z,996.68
2018-05-31T09:08:33.980Z,996.77
2018-05-31T09:09:41.330Z,996.84
2018-05-31T09:10:47.617Z,996.88
2018-05-31T09:11:54.415Z,996.87
2018-05-31T09:13:01.729Z,996.92
2018-05-31T09:14:08.018Z,996.97
2018-05-31T09:15:15.324Z,997.03
2018-05-31T09:16:22.031Z,996.89
2018-05-31T09:17:28.788Z,996.82
2018-05-31T09:18:35.529Z,996.71
2018-05-31T09:19:42.263Z,996.72
2018-05-31T09:20:48.976Z,996.72
2018-05-31T09:21:55.696Z,996.72
2018-05-31T09:23:02.392Z,996.76
2018-05-31T09:24:08.627Z,996.73
2018-05-31T09:25:15.832Z,996.71
2018-05-31T09:26:22.501Z,996.72
2018-05-31T09:27:29.206Z,996.71
2018-05-31T09:28:36.090Z,996.66
2018-05-31T09:29:42.595Z,996.70
2018-05-31T09:30:49.259Z,996.68
2018-05-31T09:31:55.533Z,996.70
2018-05-31T09:33:02.629Z,996.74
2018-05-31T09:34:09.308Z,996.78
2018-05-31T09:35:16.008Z,996.77
2018-05-31T09:36:22.474Z,996.84
2018-05-31T09:37:29.357Z,996.84
2018-05-31T09:38:35.992Z,996.89
2018-05-31T09:39:42.681Z,996.92
2018-05-31T09:40:48.820Z,996.88
2018-05-31T09:41:56.006Z,996.92
2018-05-31T09:43:02.147Z,996.91
2018-05-31T09:44:09.294Z,996.90
2018-05-31T09:45:16.969Z,996.82
2018-05-31T09:46:23.608Z,996.82
2018-05-31T09:47:29.416Z,996.79
2018-05-31T09:48:35.961Z,996.79
2018-05-31T09:49:42.157Z,996.78
2018-05-31T09:50:50.377Z,996.73
2018-05-31T09:51:56.030Z,996.75
2018-05-31T09:53:02.744Z,996.73
2018-05-31T09:54:09.471Z,996.73
2018-05-31T09:55:16.256Z,996.67
2018-05-31T09:56:22.957Z,996.76
2018-05-31T09:57:29.751Z,996.77
2018-05-31T09:58:36.024Z,996.76
2018-05-31T09:59:42.869Z,996.78
2018-05-31T10:00:50.239Z,996.77
2018-05-31T10:01:56.979Z,996.77
2018-05-31T10:05:59.385Z,996.61
2018-05-31T10:07:06.278Z,996.66
2018-05-31T10:08:13.150Z,996.65
2018-05-31T10:09:20.109Z,996.64
2018-05-31T10:10:26.922Z,996.66
2018-05-31T10:11:33.777Z,996.69
2018-05-31T10:12:40.144Z,996.63
2018-05-31T10:13:47.542Z,996.56
2018-05-31T10:14:54.407Z,996.57
2018-05-31T10:16:00.790Z,996.54
2018-05-31T10:17:07.722Z,996.52
2018-05-31T10:18:14.600Z,996.59
2018-05-31T10:19:21.954Z,996.57
2018-05-31T10:20:28.824Z,996.52
2018-05-31T10:21:35.666Z,996.52
2018-05-31T10:22:43.028Z,996.49
2018-05-31T10:23:49.401Z,996.52
2018-05-31T10:24:56.285Z,996.46
2018-05-31T10:26:02.626Z,996.48
2018-05-31T10:27:09.500Z,996.46
2018-05-31T10:28:16.361Z,996.44
2018-05-31T10:29:23.727Z,996.44
2018-05-31T10:30:30.582Z,996.39
2018-05-31T10:31:37.406Z,996.41
2018-05-31T10:32:43.755Z,996.39
2018-05-31T10:33:51.097Z,996.39
2018-05-31T10:34:57.444Z,996.40
2018-05-31T10:36:04.760Z,996.38
2018-05-31T10:37:11.600Z,996.43
2018-05-31T10:38:18.448Z,996.46
2018-05-31T10:39:25.274Z,996.45
2018-05-31T10:40:32.064Z,996.46
2018-05-31T10:41:38.390Z,996.42
2018-05-31T10:42:45.693Z,996.45
2018-05-31T10:43:52.514Z,996.52
2018-05-31T10:44:59.345Z,996.44
2018-05-31T10:46:06.149Z,996.49
2018-05-31T10:47:12.962Z,996.45
2018-05-31T10:48:19.292Z,996.51
2018-05-31T10:49:26.602Z,996.44
2018-05-31T10:50:33.436Z,996.52
2018-05-31T10:51:40.237Z,996.51
2018-05-31T10:52:47.050Z,996.55
2018-05-31T10:53:53.878Z,996.54
2018-05-31T10:55:00.228Z,996.51
2018-05-31T10:56:07.009Z,996.48
2018-05-31T10:57:14.954Z,996.45
2018-05-31T10:58:21.160Z,996.40
2018-05-31T10:59:27.475Z,996.39
2018-05-31T11:00:35.841Z,996.39
2018-05-31T11:01:41.702Z,996.40
2018-05-31T11:02:48.510Z,996.39
2018-05-31T11:03:54.929Z,996.39
2018-05-31T11:05:02.426Z,996.35
2018-05-31T11:06:08.935Z,996.38
2018-05-31T11:07:17.534Z,996.35
2018-05-31T11:08:23.724Z,996.35
2018-05-31T11:09:30.915Z,996.28
2018-05-31T11:10:38.171Z,996.19
2018-05-31T11:11:45.535Z,996.19
2018-05-31T11:12:52.777Z,996.21
2018-05-31T11:14:00.156Z,996.17
2018-05-31T11:15:08.608Z,996.14
2018-05-31T11:16:15.095Z,996.11
2018-05-31T11:17:22.509Z,996.05
2018-05-31T11:18:30.033Z,996.08
2018-05-31T11:19:37.094Z,996.04
2018-05-31T11:20:45.166Z,995.98
2018-05-31T11:21:52.260Z,995.96
2018-05-31T11:23:00.392Z,995.93
2018-05-31T11:24:08.042Z,995.89
2018-05-31T11:25:15.735Z,995.85
2018-05-31T11:26:24.402Z,995.80
2018-05-31T11:27:31.138Z,995.73
2018-05-31T11:28:38.866Z,995.73
2018-05-31T11:29:47.647Z,995.71
2018-05-31T11:30:54.410Z,995.68
2018-05-31T11:32:01.713Z,995.66
2018-05-31T11:33:11.034Z,995.60
2018-05-31T11:34:17.861Z,995.59
2018-05-31T11:35:25.724Z,995.58
2018-05-31T11:36:33.072Z,995.56
2018-05-31T11:37:40.944Z,995.51
2018-05-31T11:38:48.843Z,995.51
2018-05-31T11:39:57.258Z,995.56
2018-05-31T11:41:05.662Z,995.55
2018-05-31T11:42:12.613Z,995.55
2018-05-31T11:43:20.533Z,995.59
2018-05-31T11:44:28.529Z,995.57
2018-05-31T11:45:36.997Z,995.51
2018-05-31T11:46:44.466Z,995.50
2018-05-31T11:47:53.964Z,995.47
2018-05-31T11:49:00.471Z,995.46
2018-05-31T11:50:09.003Z,995.44
2018-05-31T11:51:16.490Z,995.43
2018-05-31T11:52:24.527Z,995.41
2018-05-31T11:53:32.572Z,995.44
2018-05-31T11:54:40.621Z,995.44
2018-05-31T11:55:49.191Z,995.46
2018-05-31T11:56:56.760Z,995.51
2018-05-31T11:58:04.860Z,995.52
2018-05-31T11:59:12.956Z,995.52
2018-05-31T12:00:21.094Z,995.55
2018-05-31T12:01:29.715Z,995.57
2018-05-31T12:02:37.828Z,995.61
2018-05-31T12:03:45.587Z,995.58
2018-05-31T12:04:54.133Z,995.52
2018-05-31T12:06:01.765Z,995.55
2018-05-31T12:07:10.431Z,995.47
2018-05-31T12:08:19.623Z,995.47
2018-05-31T12:09:26.279Z,995.50
2018-05-31T12:10:34.990Z,995.50
2018-05-31T12:11:42.666Z,995.52
2018-05-31T12:12:51.366Z,995.51
2018-05-31T12:13:59.073Z,995.52
2018-05-31T12:15:07.312Z,995.48
2018-05-31T12:16:15.516Z,995.48
2018-05-31T12:17:23.790Z,995.54
2018-05-31T12:18:31.980Z,995.58
2018-05-31T12:19:40.238Z,995.63
2018-05-31T12:20:48.505Z,995.65
2018-05-31T12:21:57.735Z,995.64
2018-05-31T12:23:05.049Z,995.72
2018-05-31T12:24:13.280Z,995.70
2018-05-31T12:25:21.577Z,995.69
2018-05-31T12:26:29.820Z,995.68
2018-05-31T12:27:38.600Z,995.65
2018-05-31T12:28:46.890Z,995.61
2018-05-31T12:29:55.229Z,995.47
2018-05-31T12:31:03.505Z,995.47
2018-05-31T12:32:11.388Z,995.37
2018-05-31T12:33:20.177Z,995.29
2018-05-31T12:34:28.037Z,995.27
2018-05-31T12:35:36.443Z,995.28
2018-05-31T12:36:44.800Z,995.30
2018-05-31T12:37:53.200Z,995.33
2018-05-31T12:39:01.611Z,995.31
2018-05-31T12:40:10.042Z,995.40
2018-05-31T12:41:18.930Z,995.48
2018-05-31T12:42:26.863Z,995.51
2018-05-31T12:43:35.326Z,995.51
2018-05-31T12:44:43.776Z,995.51
2018-05-31T12:45:52.277Z,995.49
2018-05-31T12:47:00.769Z,995.39
2018-05-31T12:48:09.771Z,995.28
2018-05-31T12:49:18.296Z,995.19
2018-05-31T12:50:26.835Z,995.04
2018-05-31T12:51:34.871Z,995.08
2018-05-31T12:52:43.356Z,995.01
2018-05-31T12:53:52.881Z,995.04
2018-05-31T12:55:00.934Z,995.05
2018-05-31T12:56:09.016Z,995.19
2018-05-31T12:57:17.533Z,995.20
2018-05-31T12:58:26.816Z,995.30
2018-05-31T12:59:34.143Z,995.34
2018-05-31T13:00:42.888Z,995.37
2018-05-31T13:01:50.957Z,995.40
2018-05-31T13:02:58.996Z,995.43
2018-05-31T13:04:06.456Z,995.47
2018-05-31T13:05:14.397Z,995.48
2018-05-31T13:06:22.697Z,995.57
2018-05-31T13:07:29.966Z,995.48
2018-05-31T13:08:37.704Z,995.37
2018-05-31T13:09:45.919Z,995.34
2018-05-31T13:10:54.139Z,995.39
2018-05-31T13:12:00.733Z,995.37
2018-05-31T13:13:08.164Z,995.32
2018-05-31T13:14:15.681Z,995.31
2018-05-31T13:15:23.195Z,995.18
2018-05-31T13:16:31.153Z,995.16
2018-05-31T13:17:38.123Z,995.14
2018-05-31T13:18:45.563Z,995.13
2018-05-31T13:19:53.464Z,995.14
2018-05-31T13:21:00.386Z,995.10
2018-05-31T13:22:07.709Z,995.19
2018-05-31T13:23:15.034Z,995.21
2018-05-31T13:24:22.335Z,995.20
2018-05-31T13:25:30.097Z,995.17
2018-05-31T13:26:37.311Z,995.18
2018-05-31T13:27:44.528Z,995.15
2018-05-31T13:28:51.226Z,995.21
2018-05-31T13:29:58.385Z,995.18
2018-05-31T13:31:06.031Z,995.20
2018-05-31T13:32:13.142Z,995.22
2018-05-31T13:33:20.217Z,995.29
2018-05-31T13:34:26.802Z,995.42
2018-05-31T13:35:33.919Z,995.52
2018-05-31T13:36:41.395Z,995.63
2018-05-31T13:37:47.952Z,995.80
2018-05-31T13:38:55.536Z,995.94
2018-05-31T13:40:02.480Z,996.15
2018-05-31T13:41:08.971Z,996.30
2018-05-31T13:42:16.414Z,996.52
2018-05-31T13:43:23.866Z,996.71
2018-05-31T13:44:29.845Z,996.92
2018-05-31T13:45:36.750Z,996.98
2018-05-31T13:46:44.582Z,997.07
2018-05-31T13:47:50.566Z,997.31
2018-05-31T13:48:57.389Z,997.37
2018-05-31T13:50:04.216Z,997.50
2018-05-31T13:51:11.528Z,997.36
2018-05-31T13:52:17.842Z,997.23
2018-05-31T13:53:24.600Z,996.94
2018-05-31T13:54:31.876Z,996.89
2018-05-31T13:55:38.636Z,996.72
2018-05-31T13:56:45.336Z,996.64
